Time;durP1;ratioP1;P1;durP2;ratioP2;P2;SDS_P1;SDS_P2;PMS_P1;PMS_P2;Temp;Humidity;BMP_temperature;BMP_pressure;BME280_temperature;BME280_humidity;BME280_pressure;Samples;Min_cycle;Max_cycle;Signal;HPM_P1;HPM_P2
2021/07/27 00:00:51;;;;;;;23.83;13.65;;;;;;;;;;5115347;27;20022;-66
2021/07/27 00:03:17;;;;;;;23.02;12.27;;;;;;;;;;5115648;27;20019;-67
2021/07/27 00:05:43;;;;;;;21.80;11.90;;;;;;;;;;5114632;27;20031;-67
2021/07/27 00:08:09;;;;;;;22.23;12.60;;;;;;;;;;5114849;27;20043;-67
2021/07/27 00:10:37;;;;;;;21.67;12.20;;;;;;;;;;5114974;27;20027;-67
2021/07/27 00:13:03;;;;;;;23.10;12.02;;;;;;;;;;5133398;27;20035;-67
2021/07/27 00:15:29;;;;;;;21.85;10.90;;;;;;;;;;5114406;27;20029;-67
2021/07/27 00:17:55;;;;;;;25.13;11.95;;;;;;;;;;5114640;27;20117;-67
2021/07/27 00:20:21;;;;;;;22.63;11.90;;;;;;;;;;5114793;27;20536;-67
2021/07/27 00:22:47;;;;;;;22.63;11.68;;;;;;;;;;5095001;28;20031;-66
2021/07/27 00:25:17;;;;;;;20.92;11.85;;;;;;;;;;5112273;28;20023;-67
2021/07/27 00:27:43;;;;;;;22.77;12.48;;;;;;;;;;5094017;28;20110;-67
2021/07/27 00:30:10;;;;;;;22.13;12.45;;;;;;;;;;5112910;28;20075;-68
2021/07/27 00:32:40;;;;;;;22.95;11.93;;;;;;;;;;5094135;28;20157;-67
2021/07/27 00:35:06;;;;;;;22.90;11.57;;;;;;;;;;5112328;28;20477;-67
2021/07/27 00:37:33;;;;;;;22.67;12.63;;;;;;;;;;5094065;28;20483;-67
2021/07/27 00:39:59;;;;;;;22.58;11.65;;;;;;;;;;5094355;28;20035;-67
2021/07/27 00:42:26;;;;;;;21.85;11.43;;;;;;;;;;5094070;28;20081;-68
2021/07/27 00:44:52;;;;;;;21.85;12.07;;;;;;;;;;5112167;28;20490;-67
2021/07/27 00:47:18;;;;;;;23.42;12.07;;;;;;;;;;5112174;28;20028;-67
2021/07/27 00:49:44;;;;;;;21.88;11.95;;;;;;;;;;5112218;28;20027;-67
2021/07/27 00:52:10;;;;;;;24.33;12.82;;;;;;;;;;5093992;28;20048;-67
2021/07/27 00:54:37;;;;;;;25.23;12.65;;;;;;;;;;5112312;28;20058;-67
2021/07/27 00:57:03;;;;;;;23.85;13.90;;;;;;;;;;5112030;28;20110;-67
2021/07/27 00:59:29;;;;;;;24.90;13.50;;;;;;;;;;5112105;28;20095;-67
2021/07/27 01:01:55;;;;;;;24.20;12.75;;;;;;;;;;5111981;28;20123;-65
2021/07/27 01:04:21;;;;;;;22.67;12.43;;;;;;;;;;5112254;28;20491;-67
2021/07/27 01:06:47;;;;;;;25.25;13.45;;;;;;;;;;5111614;28;20034;-67
2021/07/27 01:09:14;;;;;;;23.52;13.18;;;;;;;;;;5093667;28;20020;-66
2021/07/27 01:11:41;;;;;;;23.85;13.27;;;;;;;;;;5093416;28;20414;-67
2021/07/27 01:14:07;;;;;;;25.77;14.05;;;;;;;;;;5093338;28;20016;-67
2021/07/27 01:16:35;;;;;;;23.83;13.00;;;;;;;;;;5111774;28;20027;-67
2021/07/27 01:38:40;;;;;;;28.33;16.13;;;;;;;;;;5136915;27;20030;-67
2021/07/27 01:43:43;;;;;;;28.38;15.27;;;;;;;;;;5136266;27;20378;-67
2021/07/27 01:46:10;;;;;;;28.73;17.90;;;;;;;;;;5117732;27;20034;-68
2021/07/27 01:48:37;;;;;;;28.42;16.58;;;;;;;;;;5117834;27;20022;-66
2021/07/27 01:51:06;;;;;;;26.83;14.73;;;;;;;;;;5135337;27;20027;-66
2021/07/27 01:53:38;;;;;;;27.40;15.85;;;;;;;;;;5118103;27;20118;-68
2021/07/27 01:56:04;;;;;;;34.17;17.10;;;;;;;;;;5122942;27;20490;-67
2021/07/27 01:58:31;;;;;;;29.20;16.15;;;;;;;;;;5097174;28;20024;-67
2021/07/27 02:00:57;;;;;;;26.92;15.02;;;;;;;;;;5097351;28;20020;-67
2021/07/27 02:03:26;;;;;;;26.77;16.50;;;;;;;;;;5097394;28;20486;-67
2021/07/27 02:05:52;;;;;;;27.38;15.27;;;;;;;;;;5115490;28;20019;-67
2021/07/27 02:08:18;;;;;;;30.35;16.38;;;;;;;;;;5115537;28;20475;-67
2021/07/27 02:10:48;;;;;;;29.15;16.55;;;;;;;;;;5124875;27;20015;-67
2021/07/27 02:13:24;;;;;;;28.25;17.02;;;;;;;;;;5135891;27;20019;-66
2021/07/27 02:15:50;;;;;;;29.85;16.70;;;;;;;;;;5117120;27;20019;-67
2021/07/27 02:18:16;;;;;;;34.60;16.55;;;;;;;;;;5118605;27;20027;-68
2021/07/27 02:20:45;;;;;;;27.63;16.77;;;;;;;;;;5115680;28;20033;-67
2021/07/27 02:23:11;;;;;;;30.00;15.45;;;;;;;;;;5115216;28;20019;-69
2021/07/27 02:25:37;;;;;;;30.05;17.40;;;;;;;;;;5115028;28;20107;-66
2021/07/27 02:28:03;;;;;;;30.85;19.70;;;;;;;;;;5123743;27;20042;-67
2021/07/27 02:30:33;;;;;;;29.60;18.23;;;;;;;;;;5136143;27;20024;-67
2021/07/27 02:32:59;;;;;;;30.10;18.75;;;;;;;;;;5136180;27;20562;-67
2021/07/27 02:35:25;;;;;;;34.00;18.38;;;;;;;;;;5116068;27;20035;-66
2021/07/27 02:37:50;;;;;;;31.65;18.75;;;;;;;;;;5135538;27;20020;-68
2021/07/27 02:40:16;;;;;;;34.13;21.40;;;;;;;;;;5117191;27;20030;-67
2021/07/27 02:42:42;;;;;;;35.67;21.35;;;;;;;;;;5117615;27;20034;-67
2021/07/27 02:45:12;;;;;;;35.55;21.83;;;;;;;;;;5106209;22;20036;-62
2021/07/27 02:47:42;;;;;;;32.53;20.63;;;;;;;;;;5053718;28;20036;-63
2021/07/27 02:50:09;;;;;;;34.95;20.35;;;;;;;;;;5036462;28;20017;-63
2021/07/27 02:52:35;;;;;;;39.58;20.70;;;;;;;;;;5053949;28;20024;-63
2021/07/27 02:55:01;;;;;;;33.88;21.75;;;;;;;;;;5035905;28;20025;-62
2021/07/27 02:57:27;;;;;;;37.03;23.55;;;;;;;;;;5035988;28;20025;-64
2021/07/27 02:59:56;;;;;;;38.22;20.80;;;;;;;;;;5036330;28;20031;-62
2021/07/27 03:02:28;;;;;;;34.38;21.48;;;;;;;;;;5042749;28;20025;-64
2021/07/27 03:04:54;;;;;;;37.10;21.48;;;;;;;;;;5033825;28;20045;-64
2021/07/27 03:07:20;;;;;;;36.20;23.73;;;;;;;;;;5015964;28;20481;-64
2021/07/27 03:12:31;;;;;;;36.92;21.45;;;;;;;;;;5034238;28;20099;-65
2021/07/27 03:15:00;;;;;;;36.55;23.45;;;;;;;;;;5033658;28;20025;-64
2021/07/27 03:17:27;;;;;;;35.03;22.40;;;;;;;;;;5044100;28;20096;-64
2021/07/27 03:19:53;;;;;;;35.75;22.90;;;;;;;;;;5035792;28;20106;-63
2021/07/27 03:22:19;;;;;;;37.25;23.35;;;;;;;;;;5053617;28;20021;-64
2021/07/27 03:24:45;;;;;;;37.33;23.48;;;;;;;;;;5035823;28;20047;-63
2021/07/27 03:27:12;;;;;;;40.88;24.23;;;;;;;;;;5035373;28;20024;-63
2021/07/27 03:29:38;;;;;;;40.55;26.35;;;;;;;;;;5035592;28;20025;-63
2021/07/27 03:32:04;;;;;;;38.45;24.30;;;;;;;;;;5053423;28;20124;-63
2021/07/27 03:34:30;;;;;;;40.38;24.45;;;;;;;;;;5045345;28;20762;-58
2021/07/27 03:36:56;;;;;;;38.70;25.02;;;;;;;;;;5015461;28;20116;-63
2021/07/27 03:39:22;;;;;;;42.35;24.77;;;;;;;;;;5015853;28;20362;-63
2021/07/27 03:41:47;;;;;;;42.25;26.33;;;;;;;;;;5033157;28;20026;-63
2021/07/27 03:44:15;;;;;;;40.90;24.92;;;;;;;;;;5036365;28;20033;-63
2021/07/27 03:46:44;;;;;;;40.33;25.07;;;;;;;;;;5034180;28;20170;-63
2021/07/27 03:49:10;;;;;;;46.00;25.35;;;;;;;;;;5052589;28;20029;-63
2021/07/27 03:51:36;;;;;;;44.63;27.48;;;;;;;;;;5047580;28;20028;-64
2021/07/27 03:54:02;;;;;;;45.08;27.50;;;;;;;;;;5015318;28;20115;-63
2021/07/27 03:56:28;;;;;;;44.70;26.23;;;;;;;;;;5032637;28;20069;-63
2021/07/27 03:58:55;;;;;;;37.85;24.33;;;;;;;;;;5033150;28;20037;-63
2021/07/27 04:01:21;;;;;;;39.10;24.70;;;;;;;;;;5033003;28;20033;-63
2021/07/27 04:03:47;;;;;;;42.45;25.45;;;;;;;;;;5015220;28;20385;-63
2021/07/27 04:06:16;;;;;;;41.58;25.67;;;;;;;;;;5032456;28;20040;-64
2021/07/27 04:08:42;;;;;;;43.28;26.52;;;;;;;;;;5032814;28;20474;-65
2021/07/27 04:11:08;;;;;;;41.55;25.90;;;;;;;;;;5032747;28;20024;-65
2021/07/27 04:13:34;;;;;;;40.80;24.95;;;;;;;;;;5032660;28;20057;-65
2021/07/27 04:16:01;;;;;;;41.75;25.48;;;;;;;;;;5040476;28;20036;-64
2021/07/27 04:18:27;;;;;;;37.47;24.70;;;;;;;;;;5052510;28;20107;-63
2021/07/27 04:21:02;;;;;;;42.45;24.58;;;;;;;;;;5052403;28;20091;-62
2021/07/27 04:23:29;;;;;;;39.10;24.70;;;;;;;;;;5030368;28;20017;-65
2021/07/27 04:25:54;;;;;;;44.97;27.80;;;;;;;;;;5041663;28;20029;-65
2021/07/27 04:28:20;;;;;;;44.58;26.80;;;;;;;;;;5032375;28;20440;-63
2021/07/27 04:30:46;;;;;;;43.65;28.70;;;;;;;;;;5032503;28;20045;-63
2021/07/27 04:33:12;;;;;;;41.88;26.48;;;;;;;;;;5014620;28;20086;-63
2021/07/27 04:35:40;;;;;;;45.13;26.80;;;;;;;;;;5032328;28;20466;-64
2021/07/27 04:38:06;;;;;;;50.35;31.13;;;;;;;;;;5032375;28;20057;-65
2021/07/27 04:40:32;;;;;;;50.35;30.65;;;;;;;;;;5032509;28;20052;-64
2021/07/27 04:42:59;;;;;;;48.25;30.38;;;;;;;;;;5032180;28;20629;-64
2021/07/27 04:45:28;;;;;;;52.63;32.22;;;;;;;;;;5014080;28;20060;-64
2021/07/27 04:47:54;;;;;;;48.60;30.58;;;;;;;;;;5031684;28;20072;-64
2021/07/27 04:50:21;;;;;;;50.83;31.85;;;;;;;;;;5014599;28;20071;-64
2021/07/27 04:52:57;;;;;;;49.50;31.27;;;;;;;;;;5033259;28;20028;-64
2021/07/27 04:55:24;;;;;;;44.33;29.15;;;;;;;;;;5031917;28;20028;-64
2021/07/27 04:57:50;;;;;;;51.47;31.13;;;;;;;;;;5016925;28;20047;-63
2021/07/27 05:00:26;;;;;;;48.60;31.58;;;;;;;;;;5051729;28;20477;-64
2021/07/27 05:02:52;;;;;;;47.90;31.77;;;;;;;;;;5034259;28;20385;-66
2021/07/27 05:05:18;;;;;;;48.10;30.02;;;;;;;;;;5051785;28;20131;-64
2021/07/27 05:07:45;;;;;;;49.05;30.92;;;;;;;;;;5052094;28;20516;-64
2021/07/27 05:10:11;;;;;;;45.53;31.30;;;;;;;;;;5051475;28;20036;-64
2021/07/27 05:12:38;;;;;;;46.28;30.48;;;;;;;;;;5051556;28;20041;-65
2021/07/27 05:15:04;;;;;;;46.80;30.27;;;;;;;;;;5052100;28;20082;-64
2021/07/27 05:17:30;;;;;;;48.45;32.10;;;;;;;;;;5051776;28;20036;-65
2021/07/27 05:19:56;;;;;;;45.42;30.88;;;;;;;;;;5050947;28;20032;-64
2021/07/27 05:22:23;;;;;;;46.78;30.80;;;;;;;;;;5033846;28;20037;-64
2021/07/27 05:24:49;;;;;;;46.90;30.48;;;;;;;;;;5033707;28;20369;-62
2021/07/27 05:27:15;;;;;;;46.40;30.88;;;;;;;;;;5033790;28;20033;-62
2021/07/27 05:29:41;;;;;;;43.63;30.77;;;;;;;;;;5033953;28;20017;-65
2021/07/27 05:32:08;;;;;;;52.30;32.53;;;;;;;;;;5051453;28;20051;-65
2021/07/27 05:34:34;;;;;;;46.75;32.00;;;;;;;;;;5051198;28;20021;-65
2021/07/27 05:37:00;;;;;;;49.08;32.90;;;;;;;;;;5033154;28;20079;-64
2021/07/27 05:39:26;;;;;;;47.13;31.73;;;;;;;;;;5033435;28;20375;-64
2021/07/27 05:41:52;;;;;;;47.63;33.00;;;;;;;;;;5033319;28;20036;-64
2021/07/27 05:44:23;;;;;;;49.72;33.40;;;;;;;;;;5033166;28;20124;-65
2021/07/27 05:46:50;;;;;;;48.22;30.85;;;;;;;;;;5030165;28;20068;-65
2021/07/27 05:49:16;;;;;;;49.42;34.83;;;;;;;;;;5031270;28;20113;-64
2021/07/27 05:51:41;;;;;;;54.78;37.10;;;;;;;;;;5031610;28;20072;-65
2021/07/27 05:54:07;;;;;;;52.20;33.53;;;;;;;;;;5037051;28;20489;-64
2021/07/27 05:56:34;;;;;;;50.65;34.25;;;;;;;;;;5024565;28;20021;-65
2021/07/27 05:59:00;;;;;;;53.00;34.30;;;;;;;;;;5033076;28;20029;-65
2021/07/27 06:01:26;;;;;;;48.40;32.45;;;;;;;;;;5033189;28;20029;-64
2021/07/27 06:03:52;;;;;;;51.85;34.60;;;;;;;;;;5015040;28;20393;-61
2021/07/27 06:06:18;;;;;;;49.92;34.70;;;;;;;;;;5031563;28;20040;-62
2021/07/27 06:08:44;;;;;;;50.85;35.38;;;;;;;;;;5015250;28;20432;-64
2021/07/27 06:11:11;;;;;;;49.35;34.05;;;;;;;;;;5040970;28;20033;-64
2021/07/27 06:13:37;;;;;;;48.10;32.33;;;;;;;;;;5047644;28;20017;-64
2021/07/27 06:16:06;;;;;;;48.13;33.05;;;;;;;;;;5028759;28;20119;-63
2021/07/27 06:18:33;;;;;;;54.92;34.90;;;;;;;;;;5054609;28;20027;-65
2021/07/27 06:20:59;;;;;;;50.75;36.03;;;;;;;;;;5037122;28;20423;-64
2021/07/27 06:23:25;;;;;;;52.45;35.38;;;;;;;;;;5036878;28;20032;-65
2021/07/27 06:25:51;;;;;;;49.45;35.13;;;;;;;;;;5036543;28;20112;-65
2021/07/27 06:28:17;;;;;;;47.85;33.05;;;;;;;;;;5054652;28;20108;-65
2021/07/27 06:30:43;;;;;;;50.05;35.30;;;;;;;;;;5047453;28;20024;-65
2021/07/27 06:33:09;;;;;;;51.90;33.53;;;;;;;;;;5016779;28;20496;-64
2021/07/27 06:35:35;;;;;;;47.70;34.72;;;;;;;;;;5034416;28;20025;-64
2021/07/27 06:38:01;;;;;;;50.75;34.15;;;;;;;;;;5016667;28;20033;-64
2021/07/27 06:40:27;;;;;;;49.75;35.33;;;;;;;;;;5034487;28;20497;-64
2021/07/27 06:42:53;;;;;;;49.00;34.55;;;;;;;;;;5034539;28;20041;-65
2021/07/27 06:45:19;;;;;;;47.03;33.30;;;;;;;;;;5033971;28;20461;-66
2021/07/27 06:47:45;;;;;;;47.25;33.22;;;;;;;;;;5034593;28;20025;-63
2021/07/27 06:50:11;;;;;;;47.05;33.10;;;;;;;;;;5034234;28;20029;-64
2021/07/27 06:52:37;;;;;;;43.25;31.50;;;;;;;;;;5016456;28;20021;-63
2021/07/27 06:55:04;;;;;;;44.08;33.55;;;;;;;;;;5033847;28;20436;-60
2021/07/27 06:57:30;;;;;;;47.92;33.63;;;;;;;;;;5015819;28;20477;-63
2021/07/27 06:59:56;;;;;;;48.53;34.90;;;;;;;;;;5034282;28;20031;-64
2021/07/27 07:02:24;;;;;;;45.13;31.55;;;;;;;;;;5016302;28;20450;-64
2021/07/27 07:04:50;;;;;;;45.55;34.38;;;;;;;;;;5016198;28;20382;-64
2021/07/27 07:07:16;;;;;;;47.90;34.05;;;;;;;;;;5033877;28;20026;-63
2021/07/27 07:09:42;;;;;;;42.35;31.80;;;;;;;;;;5016311;28;20044;-64
2021/07/27 07:12:10;;;;;;;43.30;33.13;;;;;;;;;;5016324;28;20026;-64
2021/07/27 07:14:36;;;;;;;44.40;31.83;;;;;;;;;;5034284;28;20014;-64
2021/07/27 07:17:02;;;;;;;43.05;31.05;;;;;;;;;;5015969;28;20073;-64
2021/07/27 07:19:28;;;;;;;46.22;32.92;;;;;;;;;;5016069;28;20022;-64
2021/07/27 07:21:54;;;;;;;43.25;31.92;;;;;;;;;;5033452;28;20036;-65
2021/07/27 07:24:20;;;;;;;43.47;30.70;;;;;;;;;;5033812;28;20069;-63
2021/07/27 07:26:49;;;;;;;45.38;30.65;;;;;;;;;;5033609;28;20030;-64
2021/07/27 07:29:15;;;;;;;40.22;29.52;;;;;;;;;;5033430;28;20100;-64
2021/07/27 07:31:41;;;;;;;44.20;30.15;;;;;;;;;;5012735;28;20151;-63
2021/07/27 07:34:07;;;;;;;42.38;30.90;;;;;;;;;;5015909;28;20025;-64
2021/07/27 07:36:33;;;;;;;39.25;30.02;;;;;;;;;;5015471;28;20382;-64
2021/07/27 07:38:59;;;;;;;38.83;29.02;;;;;;;;;;5036748;28;20123;-65
2021/07/27 07:41:27;;;;;;;36.75;29.48;;;;;;;;;;5053539;28;20021;-63
2021/07/27 07:43:53;;;;;;;39.42;28.50;;;;;;;;;;5053283;28;20032;-64
2021/07/27 07:46:19;;;;;;;37.70;27.58;;;;;;;;;;5034847;28;20037;-66
2021/07/27 07:48:45;;;;;;;35.53;26.98;;;;;;;;;;5035382;28;20025;-62
2021/07/27 07:51:11;;;;;;;31.45;24.27;;;;;;;;;;5035082;28;20108;-63
2021/07/27 07:53:37;;;;;;;33.10;25.17;;;;;;;;;;5053157;28;20032;-62
2021/07/27 07:56:08;;;;;;;31.98;23.00;;;;;;;;;;5052663;28;20044;-63
2021/07/27 07:58:34;;;;;;;32.00;25.85;;;;;;;;;;5020438;28;20120;-63
2021/07/27 08:01:00;;;;;;;35.10;25.33;;;;;;;;;;5033399;28;20055;-64
2021/07/27 08:03:26;;;;;;;32.28;23.27;;;;;;;;;;5015433;28;20025;-63
2021/07/27 08:05:52;;;;;;;29.63;20.95;;;;;;;;;;5014862;28;20038;-63
2021/07/27 08:08:19;;;;;;;31.40;23.15;;;;;;;;;;5033033;28;20052;-63
2021/07/27 08:10:45;;;;;;;34.30;20.30;;;;;;;;;;5032762;28;20013;-61
2021/07/27 08:13:11;;;;;;;29.33;20.63;;;;;;;;;;5015148;28;20034;-64
2021/07/27 08:15:37;;;;;;;31.00;19.63;;;;;;;;;;5032329;28;20021;-64
2021/07/27 08:18:03;;;;;;;27.23;18.75;;;;;;;;;;5034444;28;20033;-64
2021/07/27 08:20:32;;;;;;;30.77;20.27;;;;;;;;;;5014979;28;20052;-62
2021/07/27 08:22:58;;;;;;;26.65;19.50;;;;;;;;;;5032779;28;20029;-62
2021/07/27 08:25:27;;;;;;;26.20;18.40;;;;;;;;;;5032257;28;20374;-63
2021/07/27 08:27:53;;;;;;;28.08;19.77;;;;;;;;;;5031296;28;20378;-67
2021/07/27 08:30:19;;;;;;;26.02;18.25;;;;;;;;;;5013967;28;20367;-65
2021/07/27 08:32:46;;;;;;;30.80;19.05;;;;;;;;;;5031726;28;20440;-63
2021/07/27 08:35:12;;;;;;;27.10;18.50;;;;;;;;;;5052357;28;20029;-64
2021/07/27 08:37:38;;;;;;;25.83;18.73;;;;;;;;;;5050507;28;20025;-64
2021/07/27 08:40:05;;;;;;;29.00;18.50;;;;;;;;;;5033709;28;20052;-64
2021/07/27 08:42:31;;;;;;;25.80;17.67;;;;;;;;;;5051364;28;20404;-60
2021/07/27 08:45:01;;;;;;;25.65;19.55;;;;;;;;;;5053146;28;20032;-64
2021/07/27 08:47:28;;;;;;;26.88;18.67;;;;;;;;;;5032969;28;20035;-63
2021/07/27 08:49:58;;;;;;;27.42;19.45;;;;;;;;;;5034131;28;20075;-65
2021/07/27 08:52:24;;;;;;;32.97;20.40;;;;;;;;;;5052601;28;20394;-65
2021/07/27 08:54:50;;;;;;;27.17;18.08;;;;;;;;;;5052452;28;20028;-63
2021/07/27 08:57:17;;;;;;;28.55;18.92;;;;;;;;;;5047421;28;20060;-63
2021/07/27 08:59:43;;;;;;;26.73;20.45;;;;;;;;;;5031755;28;20108;-64
2021/07/27 09:02:09;;;;;;;26.48;19.08;;;;;;;;;;5032299;28;20045;-64
2021/07/27 09:04:35;;;;;;;26.48;19.80;;;;;;;;;;5014218;28;20076;-62
2021/07/27 09:07:01;;;;;;;25.75;18.35;;;;;;;;;;5031627;28;20496;-63
2021/07/27 09:09:29;;;;;;;25.35;19.35;;;;;;;;;;5014168;28;20037;-64
2021/07/27 09:11:55;;;;;;;27.40;20.98;;;;;;;;;;5031997;28;20014;-64
2021/07/27 09:14:22;;;;;;;26.95;20.23;;;;;;;;;;5014176;28;20040;-63
2021/07/27 09:16:58;;;;;;;34.53;20.80;;;;;;;;;;5016467;28;20037;-65
2021/07/27 09:19:25;;;;;;;27.83;20.75;;;;;;;;;;5036338;28;20030;-64
2021/07/27 09:21:51;;;;;;;26.30;19.80;;;;;;;;;;5031898;28;20033;-64
2021/07/27 09:24:20;;;;;;;28.30;19.35;;;;;;;;;;5031514;28;20481;-64
2021/07/27 09:27:05;;;;;;;26.15;18.83;;;;;;;;;;5031210;28;20481;-63
2021/07/27 09:29:32;;;;;;;25.33;18.35;;;;;;;;;;5031758;28;20021;-64
2021/07/27 09:32:01;;;;;;;23.55;17.08;;;;;;;;;;5031944;28;20057;-63
2021/07/27 09:34:28;;;;;;;25.90;18.70;;;;;;;;;;5013769;28;20029;-63
2021/07/27 09:37:07;;;;;;;23.63;17.17;;;;;;;;;;5031787;28;20014;-64
2021/07/27 09:39:33;;;;;;;26.33;18.83;;;;;;;;;;5031623;28;20555;-62
2021/07/27 09:42:00;;;;;;;23.63;17.77;;;;;;;;;;5013897;28;20078;-62
2021/07/27 09:44:27;;;;;;;23.92;17.00;;;;;;;;;;5032787;28;20026;-61
2021/07/27 09:46:54;;;;;;;24.20;19.17;;;;;;;;;;5023133;28;20036;-65
2021/07/27 09:49:21;;;;;;;25.05;18.50;;;;;;;;;;5055292;28;20473;-64
2021/07/27 09:51:47;;;;;;;30.00;20.90;;;;;;;;;;5037045;28;20516;-63
2021/07/27 09:54:14;;;;;;;25.70;17.48;;;;;;;;;;5037257;28;20036;-61
2021/07/27 09:56:40;;;;;;;24.52;18.42;;;;;;;;;;5055177;28;20025;-63
2021/07/27 09:59:08;;;;;;;23.83;18.10;;;;;;;;;;5035458;28;20029;-62
2021/07/27 10:01:35;;;;;;;27.23;19.33;;;;;;;;;;5018185;28;20026;-64
2021/07/27 10:04:03;;;;;;;24.35;17.55;;;;;;;;;;5035331;28;20029;-64
2021/07/27 10:06:30;;;;;;;24.98;17.08;;;;;;;;;;5034850;28;20079;-63
2021/07/27 10:09:01;;;;;;;23.17;16.93;;;;;;;;;;5035310;28;20040;-63
2021/07/27 10:11:39;;;;;;;22.23;18.98;;;;;;;;;;5034984;28;20294;-64
2021/07/27 10:14:07;;;;;;;23.20;17.80;;;;;;;;;;5035543;28;20029;-64
2021/07/27 10:16:33;;;;;;;25.55;17.65;;;;;;;;;;5034846;28;20032;-63
2021/07/27 10:18:59;;;;;;;24.30;18.38;;;;;;;;;;5052328;28;20036;-64
2021/07/27 10:21:28;;;;;;;24.65;18.45;;;;;;;;;;5054787;28;20024;-63
2021/07/27 10:23:58;;;;;;;23.75;18.13;;;;;;;;;;5054072;28;20108;-64
2021/07/27 10:26:27;;;;;;;22.08;18.45;;;;;;;;;;5054286;28;20086;-66
2021/07/27 10:28:53;;;;;;;22.70;17.58;;;;;;;;;;5054353;28;20434;-64
2021/07/27 10:31:29;;;;;;;24.90;18.08;;;;;;;;;;5054523;28;20025;-66
2021/07/27 10:33:55;;;;;;;24.10;18.88;;;;;;;;;;5054865;28;20411;-65
2021/07/27 10:36:26;;;;;;;21.90;18.02;;;;;;;;;;5054724;28;20021;-65
2021/07/27 10:38:52;;;;;;;21.63;17.30;;;;;;;;;;5035952;28;20145;-65
2021/07/27 10:41:19;;;;;;;22.38;17.00;;;;;;;;;;5037258;28;20053;-64
2021/07/27 10:43:45;;;;;;;22.55;16.85;;;;;;;;;;5054803;28;20021;-63
2021/07/27 10:46:11;;;;;;;24.83;17.48;;;;;;;;;;5035810;28;20074;-65
2021/07/27 10:48:38;;;;;;;21.80;15.73;;;;;;;;;;5054192;28;20059;-63
2021/07/27 10:51:05;;;;;;;21.88;16.15;;;;;;;;;;5036475;28;20025;-63
2021/07/27 10:53:35;;;;;;;22.60;17.25;;;;;;;;;;5054185;28;20048;-64
2021/07/27 10:56:05;;;;;;;22.65;15.77;;;;;;;;;;5043561;28;20022;-63
2021/07/27 10:58:31;;;;;;;22.88;15.93;;;;;;;;;;5034406;28;20401;-65
2021/07/27 11:01:10;;;;;;;19.63;15.38;;;;;;;;;;5034203;28;20028;-64
2021/07/27 11:03:37;;;;;;;24.15;17.17;;;;;;;;;;5034322;28;20021;-64
2021/07/27 11:06:03;;;;;;;21.55;15.80;;;;;;;;;;5033964;28;20041;-64
2021/07/27 11:08:29;;;;;;;19.88;15.68;;;;;;;;;;5016612;28;20083;-64
2021/07/27 11:11:09;;;;;;;20.58;16.10;;;;;;;;;;5034158;28;20032;-63
2021/07/27 11:13:36;;;;;;;21.50;16.15;;;;;;;;;;5046112;28;20020;-62
2021/07/27 11:16:02;;;;;;;20.85;16.73;;;;;;;;;;5035754;28;20033;-63
2021/07/27 11:18:28;;;;;;;20.40;16.25;;;;;;;;;;5054015;28;20021;-63
2021/07/27 11:20:55;;;;;;;21.30;16.25;;;;;;;;;;5054195;28;20024;-63
2021/07/27 11:23:21;;;;;;;19.42;15.55;;;;;;;;;;5035921;28;20069;-62
2021/07/27 11:25:56;;;;;;;21.27;16.17;;;;;;;;;;5036021;28;20404;-63
2021/07/27 11:28:22;;;;;;;20.23;16.27;;;;;;;;;;5053656;28;20124;-64
2021/07/27 11:30:48;;;;;;;22.67;16.00;;;;;;;;;;5040809;28;20029;-63
2021/07/27 11:33:15;;;;;;;23.42;16.25;;;;;;;;;;5034216;28;20477;-63
2021/07/27 11:35:42;;;;;;;22.80;15.32;;;;;;;;;;5033302;28;20527;-62
2021/07/27 11:38:09;;;;;;;20.73;15.95;;;;;;;;;;5033225;28;20493;-64
2021/07/27 11:40:35;;;;;;;22.05;16.35;;;;;;;;;;5034038;28;20025;-62
2021/07/27 11:43:05;;;;;;;21.52;16.80;;;;;;;;;;5036425;28;20032;-63
2021/07/27 11:45:31;;;;;;;21.42;16.92;;;;;;;;;;5033540;28;20535;-62
2021/07/27 11:47:57;;;;;;;22.60;16.60;;;;;;;;;;5033124;28;20084;-63
2021/07/27 11:50:31;;;;;;;22.33;16.63;;;;;;;;;;5014974;28;20500;-65
2021/07/27 11:53:00;;;;;;;19.60;16.10;;;;;;;;;;5032628;28;20018;-63
2021/07/27 11:55:30;;;;;;;21.75;17.55;;;;;;;;;;5022608;28;20021;-62
2021/07/27 11:57:56;;;;;;;20.48;16.33;;;;;;;;;;5041847;28;20029;-64
2021/07/27 12:00:22;;;;;;;20.48;16.60;;;;;;;;;;5033264;28;20145;-62
2021/07/27 12:02:49;;;;;;;21.45;16.50;;;;;;;;;;5033209;28;20056;-67
2021/07/27 12:05:15;;;;;;;21.02;16.85;;;;;;;;;;5032579;28;20057;-63
2021/07/27 12:07:41;;;;;;;23.05;18.45;;;;;;;;;;5014659;28;20025;-64
2021/07/27 12:10:08;;;;;;;21.00;16.25;;;;;;;;;;5033223;28;20017;-64
2021/07/27 12:12:34;;;;;;;20.77;16.45;;;;;;;;;;5032993;28;20033;-62
2021/07/27 12:15:00;;;;;;;20.23;17.00;;;;;;;;;;5043961;28;20025;-64
2021/07/27 12:17:26;;;;;;;19.35;15.63;;;;;;;;;;5034470;28;20048;-64
2021/07/27 12:19:52;;;;;;;22.77;17.15;;;;;;;;;;5052820;28;20118;-62
2021/07/27 12:22:18;;;;;;;22.13;16.52;;;;;;;;;;5052718;28;20021;-65
2021/07/27 12:24:44;;;;;;;22.27;16.50;;;;;;;;;;5032755;28;20056;-65
2021/07/27 12:27:10;;;;;;;22.48;17.08;;;;;;;;;;4701807;28;10000151;-64
2021/07/27 12:29:36;;;;;;;21.17;16.35;;;;;;;;;;5032823;28;20026;-65
2021/07/27 12:32:02;;;;;;;20.65;15.63;;;;;;;;;;5011376;28;20036;-67
2021/07/27 12:34:28;;;;;;;23.90;16.67;;;;;;;;;;5011294;28;20116;-63
2021/07/27 12:36:55;;;;;;;22.17;17.10;;;;;;;;;;5028745;28;20064;-64
2021/07/27 12:39:21;;;;;;;21.27;16.80;;;;;;;;;;5029853;28;20025;-64
2021/07/27 12:41:47;;;;;;;26.17;17.58;;;;;;;;;;5011141;28;20064;-63
2021/07/27 12:44:15;;;;;;;21.80;16.60;;;;;;;;;;5028632;28;20029;-62
2021/07/27 12:46:41;;;;;;;24.27;17.13;;;;;;;;;;5027805;28;20037;-64
2021/07/27 12:49:09;;;;;;;24.77;16.00;;;;;;;;;;5028768;28;20022;-64
2021/07/27 12:51:35;;;;;;;22.95;16.80;;;;;;;;;;5028383;28;20041;-66
2021/07/27 12:54:02;;;;;;;20.50;15.70;;;;;;;;;;5026354;28;20084;-65
2021/07/27 12:56:28;;;;;;;23.13;16.13;;;;;;;;;;5028750;28;20595;-67
2021/07/27 12:58:54;;;;;;;23.88;16.30;;;;;;;;;;5028001;28;20033;-64
2021/07/27 13:01:20;;;;;;;23.48;18.02;;;;;;;;;;5028235;28;20033;-64
2021/07/27 13:03:46;;;;;;;24.95;19.92;;;;;;;;;;5009940;28;20048;-61
2021/07/27 13:06:12;;;;;;;27.08;24.10;;;;;;;;;;5010455;28;20029;-64
2021/07/27 13:08:38;;;;;;;29.23;26.20;;;;;;;;;;5028130;28;20028;-65
2021/07/27 13:11:04;;;;;;;28.92;25.80;;;;;;;;;;5007478;28;20029;-63
2021/07/27 13:13:30;;;;;;;28.58;25.63;;;;;;;;;;5010636;28;20367;-64
2021/07/27 13:15:57;;;;;;;27.33;24.38;;;;;;;;;;5010729;28;20026;-62
2021/07/27 13:18:23;;;;;;;26.25;23.42;;;;;;;;;;5028792;28;20033;-65
2021/07/27 13:20:49;;;;;;;27.20;24.00;;;;;;;;;;5014935;28;20393;-64
2021/07/27 13:23:15;;;;;;;24.70;20.73;;;;;;;;;;5032667;28;20025;-64
2021/07/27 13:25:41;;;;;;;23.15;19.75;;;;;;;;;;5014480;28;20041;-65
2021/07/27 13:28:07;;;;;;;20.35;15.20;;;;;;;;;;5043680;28;20039;-65
2021/07/27 13:30:33;;;;;;;19.20;13.98;;;;;;;;;;5052402;28;20029;-61
2021/07/27 13:32:59;;;;;;;19.05;13.73;;;;;;;;;;5037846;28;20040;-65
2021/07/27 13:35:25;;;;;;;17.50;13.00;;;;;;;;;;5031937;28;20060;-62
2021/07/27 13:37:51;;;;;;;19.70;12.98;;;;;;;;;;5032193;28;20407;-64
2021/07/27 13:40:17;;;;;;;17.45;12.20;;;;;;;;;;5031584;28;20074;-63
2021/07/27 13:42:46;;;;;;;17.40;12.52;;;;;;;;;;5013481;28;20497;-66
2021/07/27 13:45:12;;;;;;;19.50;13.18;;;;;;;;;;5029897;28;20029;-65
2021/07/27 13:47:38;;;;;;;18.15;13.80;;;;;;;;;;5013152;28;20025;-65
2021/07/27 13:50:05;;;;;;;17.55;13.82;;;;;;;;;;5033250;28;20056;-64
2021/07/27 13:52:31;;;;;;;18.55;13.80;;;;;;;;;;5031311;28;20021;-64
2021/07/27 13:54:57;;;;;;;17.52;13.05;;;;;;;;;;5030823;28;20107;-64
2021/07/27 13:57:23;;;;;;;18.77;13.82;;;;;;;;;;5030958;28;20068;-62
2021/07/27 13:59:49;;;;;;;18.05;13.18;;;;;;;;;;5037081;28;20473;-65
2021/07/27 14:02:15;;;;;;;18.40;12.48;;;;;;;;;;5052228;28;20035;-65
2021/07/27 14:04:41;;;;;;;18.42;12.60;;;;;;;;;;5037802;28;20151;-62
2021/07/27 14:07:07;;;;;;;18.80;13.40;;;;;;;;;;5014195;28;20393;-65
2021/07/27 14:09:33;;;;;;;19.25;13.93;;;;;;;;;;5031618;28;20358;-64
2021/07/27 14:12:00;;;;;;;19.75;14.40;;;;;;;;;;5013489;28;20033;-64
2021/07/27 14:14:26;;;;;;;18.90;14.50;;;;;;;;;;5013239;28;20392;-64
2021/07/27 14:16:52;;;;;;;19.48;14.18;;;;;;;;;;5031206;28;20116;-64
2021/07/27 14:19:18;;;;;;;18.40;14.48;;;;;;;;;;5013658;28;20406;-64
2021/07/27 14:21:44;;;;;;;18.60;15.32;;;;;;;;;;5013149;28;20045;-64
2021/07/27 14:24:10;;;;;;;21.02;14.43;;;;;;;;;;5018132;28;20034;-64
2021/07/27 14:26:36;;;;;;;21.73;15.80;;;;;;;;;;5041290;28;20055;-62
2021/07/27 14:29:02;;;;;;;19.15;15.10;;;;;;;;;;5030828;28;20048;-65
2021/07/27 14:31:28;;;;;;;21.42;14.52;;;;;;;;;;5013654;28;20033;-63
2021/07/27 14:33:56;;;;;;;20.00;14.75;;;;;;;;;;5013198;28;20021;-64
2021/07/27 14:36:22;;;;;;;21.63;16.13;;;;;;;;;;5030949;28;20021;-63
2021/07/27 14:38:49;;;;;;;20.63;15.05;;;;;;;;;;5031089;28;20117;-63